Terminal Aerodrome Forecast
Issued by NWS

Home | Current Version | Previous Version | Text Only | Print | Product List | Glossary On
Versions: 1 2 3 4 5 6 7 8 9 10 11 12 13 14 15
000
FTUS44 KSJT 010100 AAA
TAFBBD
TAF AMD
KBBD 010108Z 0101/0124 13006KT 3SM -DZ BR OVC002
      TEMPO 0103/0107 3/4SM -DZ BR
     FM011600 26008KT P6SM BKN012
     FM011800 33013G20KT P6SM BKN025
     FM012000 34014G21KT P6SM SCT030=

USA.gov is the U.S. government's official web portal to all federal, state and local government web resources and services.